sensor_id;sensor_type;location;lat;lon;timestamp;P1;durP1;ratioP1;P2;durP2;ratioP2
15155;SDS011;7678;50.058;8.306;2023-07-31T00:01:42;5.53;;;2.03;;
15155;SDS011;7678;50.058;8.306;2023-07-31T00:04:11;3.97;;;1.97;;
15155;SDS011;7678;50.058;8.306;2023-07-31T00:06:39;7.50;;;2.23;;
15155;SDS011;7678;50.058;8.306;2023-07-31T00:09:09;3.70;;;1.97;;
15155;SDS011;7678;50.058;8.306;2023-07-31T00:11:38;7.43;;;2.10;;
15155;SDS011;7678;50.058;8.306;2023-07-31T00:14:06;5.90;;;2.17;;
15155;SDS011;7678;50.058;8.306;2023-07-31T00:16:34;4.60;;;2.37;;
15155;SDS011;7678;50.058;8.306;2023-07-31T00:19:03;4.73;;;1.70;;
15155;SDS011;7678;50.058;8.306;2023-07-31T00:21:31;4.93;;;1.80;;
15155;SDS011;7678;50.058;8.306;2023-07-31T00:23:59;5.73;;;2.10;;
15155;SDS011;7678;50.058;8.306;2023-07-31T00:26:29;6.27;;;2.10;;
15155;SDS011;7678;50.058;8.306;2023-07-31T00:28:57;5.73;;;2.13;;
15155;SDS011;7678;50.058;8.306;2023-07-31T00:31:25;4.43;;;2.13;;
15155;SDS011;7678;50.058;8.306;2023-07-31T00:33:54;7.53;;;2.37;;
15155;SDS011;7678;50.058;8.306;2023-07-31T00:36:22;3.60;;;2.00;;
15155;SDS011;7678;50.058;8.306;2023-07-31T00:38:50;5.27;;;2.40;;
15155;SDS011;7678;50.058;8.306;2023-07-31T00:41:18;5.20;;;2.13;;
15155;SDS011;7678;50.058;8.306;2023-07-31T00:43:48;9.67;;;2.53;;
15155;SDS011;7678;50.058;8.306;2023-07-31T00:46:16;4.53;;;2.03;;
15155;SDS011;7678;50.058;8.306;2023-07-31T00:48:45;3.97;;;2.20;;
15155;SDS011;7678;50.058;8.306;2023-07-31T00:51:13;6.70;;;2.10;;
15155;SDS011;7678;50.058;8.306;2023-07-31T00:53:41;4.17;;;1.90;;
15155;SDS011;7678;50.058;8.306;2023-07-31T00:56:11;4.47;;;2.27;;
15155;SDS011;7678;50.058;8.306;2023-07-31T00:58:40;6.17;;;2.23;;
15155;SDS011;7678;50.058;8.306;2023-07-31T01:01:10;5.90;;;2.50;;
15155;SDS011;7678;50.058;8.306;2023-07-31T01:03:39;4.77;;;2.10;;
15155;SDS011;7678;50.058;8.306;2023-07-31T01:06:10;5.37;;;2.67;;
15155;SDS011;7678;50.058;8.306;2023-07-31T01:08:44;7.87;;;2.70;;
15155;SDS011;7678;50.058;8.306;2023-07-31T01:11:19;5.03;;;2.53;;
15155;SDS011;7678;50.058;8.306;2023-07-31T01:13:55;4.83;;;2.13;;
15155;SDS011;7678;50.058;8.306;2023-07-31T01:16:26;5.57;;;2.27;;
15155;SDS011;7678;50.058;8.306;2023-07-31T01:18:54;5.50;;;2.47;;
15155;SDS011;7678;50.058;8.306;2023-07-31T01:21:26;3.23;;;2.27;;
15155;SDS011;7678;50.058;8.306;2023-07-31T01:26:53;6.17;;;2.10;;
15155;SDS011;7678;50.058;8.306;2023-07-31T01:29:27;6.17;;;2.30;;
15155;SDS011;7678;50.058;8.306;2023-07-31T01:32:02;10.90;;;2.80;;
15155;SDS011;7678;50.058;8.306;2023-07-31T01:34:32;4.77;;;2.60;;
15155;SDS011;7678;50.058;8.306;2023-07-31T01:37:02;4.70;;;2.33;;
15155;SDS011;7678;50.058;8.306;2023-07-31T01:39:31;7.40;;;2.40;;
15155;SDS011;7678;50.058;8.306;2023-07-31T01:42:00;7.63;;;2.60;;
15155;SDS011;7678;50.058;8.306;2023-07-31T01:44:32;7.33;;;2.67;;
15155;SDS011;7678;50.058;8.306;2023-07-31T01:47:01;9.13;;;2.80;;
15155;SDS011;7678;50.058;8.306;2023-07-31T01:49:29;4.97;;;2.23;;
15155;SDS011;7678;50.058;8.306;2023-07-31T01:51:57;5.57;;;2.07;;
15155;SDS011;7678;50.058;8.306;2023-07-31T01:54:25;6.17;;;2.23;;
15155;SDS011;7678;50.058;8.306;2023-07-31T01:56:53;5.63;;;2.30;;
15155;SDS011;7678;50.058;8.306;2023-07-31T01:59:25;4.37;;;2.40;;
15155;SDS011;7678;50.058;8.306;2023-07-31T02:01:53;6.07;;;2.37;;
15155;SDS011;7678;50.058;8.306;2023-07-31T02:04:21;7.07;;;2.40;;
15155;SDS011;7678;50.058;8.306;2023-07-31T02:06:52;3.90;;;2.23;;
15155;SDS011;7678;50.058;8.306;2023-07-31T02:09:21;5.43;;;2.57;;
15155;SDS011;7678;50.058;8.306;2023-07-31T02:11:49;4.63;;;2.40;;
15155;SDS011;7678;50.058;8.306;2023-07-31T02:14:17;5.80;;;2.60;;
15155;SDS011;7678;50.058;8.306;2023-07-31T02:16:47;6.37;;;2.93;;
15155;SDS011;7678;50.058;8.306;2023-07-31T02:19:15;5.93;;;2.67;;
15155;SDS011;7678;50.058;8.306;2023-07-31T02:21:43;7.40;;;2.70;;
15155;SDS011;7678;50.058;8.306;2023-07-31T02:24:11;7.73;;;2.50;;
15155;SDS011;7678;50.058;8.306;2023-07-31T02:26:40;7.77;;;2.40;;
15155;SDS011;7678;50.058;8.306;2023-07-31T02:29:08;5.97;;;2.57;;
15155;SDS011;7678;50.058;8.306;2023-07-31T02:31:37;4.90;;;2.70;;
15155;SDS011;7678;50.058;8.306;2023-07-31T02:34:06;8.90;;;2.90;;
15155;SDS011;7678;50.058;8.306;2023-07-31T02:36:35;6.07;;;3.37;;
15155;SDS011;7678;50.058;8.306;2023-07-31T02:39:03;7.70;;;3.00;;
15155;SDS011;7678;50.058;8.306;2023-07-31T02:41:32;7.90;;;2.63;;
15155;SDS011;7678;50.058;8.306;2023-07-31T02:44:01;8.03;;;3.43;;
15155;SDS011;7678;50.058;8.306;2023-07-31T02:46:30;7.57;;;2.80;;
15155;SDS011;7678;50.058;8.306;2023-07-31T02:48:58;5.30;;;2.63;;
15155;SDS011;7678;50.058;8.306;2023-07-31T02:51:27;3.90;;;2.50;;
15155;SDS011;7678;50.058;8.306;2023-07-31T02:53:56;9.20;;;3.67;;
15155;SDS011;7678;50.058;8.306;2023-07-31T02:56:24;6.57;;;2.73;;
15155;SDS011;7678;50.058;8.306;2023-07-31T02:58:52;6.17;;;2.70;;
15155;SDS011;7678;50.058;8.306;2023-07-31T03:01:20;8.30;;;3.10;;
15155;SDS011;7678;50.058;8.306;2023-07-31T03:03:49;7.50;;;2.80;;
15155;SDS011;7678;50.058;8.306;2023-07-31T03:06:17;8.27;;;3.00;;
15155;SDS011;7678;50.058;8.306;2023-07-31T03:08:47;6.60;;;2.87;;
15155;SDS011;7678;50.058;8.306;2023-07-31T03:11:15;6.80;;;3.00;;
15155;SDS011;7678;50.058;8.306;2023-07-31T03:13:44;5.03;;;2.80;;
15155;SDS011;7678;50.058;8.306;2023-07-31T03:16:12;3.43;;;2.97;;
15155;SDS011;7678;50.058;8.306;2023-07-31T03:18:40;7.60;;;3.10;;
15155;SDS011;7678;50.058;8.306;2023-07-31T03:21:08;5.10;;;2.87;;
15155;SDS011;7678;50.058;8.306;2023-07-31T03:23:36;6.73;;;3.00;;
15155;SDS011;7678;50.058;8.306;2023-07-31T03:26:07;4.20;;;2.93;;
15155;SDS011;7678;50.058;8.306;2023-07-31T03:28:36;7.00;;;2.80;;
15155;SDS011;7678;50.058;8.306;2023-07-31T03:31:04;7.50;;;2.80;;
15155;SDS011;7678;50.058;8.306;2023-07-31T03:33:32;6.37;;;3.33;;
15155;SDS011;7678;50.058;8.306;2023-07-31T03:36:00;8.30;;;3.20;;
15155;SDS011;7678;50.058;8.306;2023-07-31T03:38:29;6.40;;;2.80;;
15155;SDS011;7678;50.058;8.306;2023-07-31T03:40:57;6.97;;;3.00;;
15155;SDS011;7678;50.058;8.306;2023-07-31T03:43:27;8.10;;;3.40;;
15155;SDS011;7678;50.058;8.306;2023-07-31T03:45:55;8.37;;;3.07;;
15155;SDS011;7678;50.058;8.306;2023-07-31T03:48:23;6.63;;;2.90;;
15155;SDS011;7678;50.058;8.306;2023-07-31T03:50:52;5.77;;;2.97;;
15155;SDS011;7678;50.058;8.306;2023-07-31T03:53:20;9.17;;;3.10;;
15155;SDS011;7678;50.058;8.306;2023-07-31T03:55:49;4.70;;;2.70;;
15155;SDS011;7678;50.058;8.306;2023-07-31T03:58:17;5.87;;;2.90;;
15155;SDS011;7678;50.058;8.306;2023-07-31T04:00:47;8.70;;;3.33;;
15155;SDS011;7678;50.058;8.306;2023-07-31T04:03:15;5.20;;;3.00;;
15155;SDS011;7678;50.058;8.306;2023-07-31T04:05:44;7.77;;;3.43;;
15155;SDS011;7678;50.058;8.306;2023-07-31T04:08:12;6.20;;;3.00;;
15155;SDS011;7678;50.058;8.306;2023-07-31T04:10:40;8.97;;;3.53;;
15155;SDS011;7678;50.058;8.306;2023-07-31T04:13:08;6.90;;;3.13;;
15155;SDS011;7678;50.058;8.306;2023-07-31T04:15:36;4.97;;;3.00;;
15155;SDS011;7678;50.058;8.306;2023-07-31T04:18:06;7.27;;;3.50;;
15155;SDS011;7678;50.058;8.306;2023-07-31T04:20:34;8.00;;;3.17;;
15155;SDS011;7678;50.058;8.306;2023-07-31T04:23:02;10.77;;;3.27;;
15155;SDS011;7678;50.058;8.306;2023-07-31T04:25:31;5.73;;;3.00;;
15155;SDS011;7678;50.058;8.306;2023-07-31T04:28:01;9.13;;;3.20;;
15155;SDS011;7678;50.058;8.306;2023-07-31T04:30:29;6.50;;;3.03;;
15155;SDS011;7678;50.058;8.306;2023-07-31T04:32:58;6.87;;;3.03;;
15155;SDS011;7678;50.058;8.306;2023-07-31T04:35:27;10.63;;;3.00;;
15155;SDS011;7678;50.058;8.306;2023-07-31T04:37:55;6.43;;;2.77;;
15155;SDS011;7678;50.058;8.306;2023-07-31T04:40:24;6.33;;;2.90;;
15155;SDS011;7678;50.058;8.306;2023-07-31T04:42:53;5.53;;;2.87;;
15155;SDS011;7678;50.058;8.306;2023-07-31T04:45:22;5.77;;;3.00;;
15155;SDS011;7678;50.058;8.306;2023-07-31T04:47:51;6.10;;;2.63;;
15155;SDS011;7678;50.058;8.306;2023-07-31T04:50:19;8.43;;;3.10;;
15155;SDS011;7678;50.058;8.306;2023-07-31T04:52:48;8.57;;;3.30;;
15155;SDS011;7678;50.058;8.306;2023-07-31T04:55:17;6.73;;;3.07;;
15155;SDS011;7678;50.058;8.306;2023-07-31T04:57:45;8.43;;;3.00;;
15155;SDS011;7678;50.058;8.306;2023-07-31T05:00:13;6.03;;;2.70;;
15155;SDS011;7678;50.058;8.306;2023-07-31T05:02:42;5.27;;;2.53;;
15155;SDS011;7678;50.058;8.306;2023-07-31T05:05:10;8.80;;;2.70;;
15155;SDS011;7678;50.058;8.306;2023-07-31T05:07:38;6.73;;;3.00;;
15155;SDS011;7678;50.058;8.306;2023-07-31T05:10:08;8.10;;;2.70;;
15155;SDS011;7678;50.058;8.306;2023-07-31T05:12:37;7.03;;;2.90;;
15155;SDS011;7678;50.058;8.306;2023-07-31T05:15:05;6.00;;;3.27;;
15155;SDS011;7678;50.058;8.306;2023-07-31T05:17:34;7.77;;;2.90;;
15155;SDS011;7678;50.058;8.306;2023-07-31T05:20:03;7.77;;;3.20;;
15155;SDS011;7678;50.058;8.306;2023-07-31T05:22:32;4.83;;;3.20;;
15155;SDS011;7678;50.058;8.306;2023-07-31T05:25:00;5.93;;;3.10;;
15155;SDS011;7678;50.058;8.306;2023-07-31T05:27:31;10.33;;;2.77;;
15155;SDS011;7678;50.058;8.306;2023-07-31T05:29:59;6.27;;;3.03;;
15155;SDS011;7678;50.058;8.306;2023-07-31T05:32:28;9.80;;;3.60;;
15155;SDS011;7678;50.058;8.306;2023-07-31T05:34:56;6.67;;;3.40;;
15155;SDS011;7678;50.058;8.306;2023-07-31T05:37:25;13.03;;;3.80;;
15155;SDS011;7678;50.058;8.306;2023-07-31T05:39:53;10.97;;;3.40;;
15155;SDS011;7678;50.058;8.306;2023-07-31T05:42:21;8.40;;;3.30;;
15155;SDS011;7678;50.058;8.306;2023-07-31T05:44:51;7.53;;;3.13;;
15155;SDS011;7678;50.058;8.306;2023-07-31T05:47:20;7.17;;;3.13;;
15155;SDS011;7678;50.058;8.306;2023-07-31T05:49:49;7.33;;;3.23;;
15155;SDS011;7678;50.058;8.306;2023-07-31T05:52:19;6.80;;;3.00;;
15155;SDS011;7678;50.058;8.306;2023-07-31T05:54:47;7.87;;;3.43;;
15155;SDS011;7678;50.058;8.306;2023-07-31T05:57:15;7.30;;;2.90;;
15155;SDS011;7678;50.058;8.306;2023-07-31T05:59:43;9.17;;;3.50;;
15155;SDS011;7678;50.058;8.306;2023-07-31T06:02:13;5.07;;;2.97;;
15155;SDS011;7678;50.058;8.306;2023-07-31T06:04:41;8.20;;;3.47;;
15155;SDS011;7678;50.058;8.306;2023-07-31T06:07:09;5.87;;;3.13;;
15155;SDS011;7678;50.058;8.306;2023-07-31T06:09:38;7.60;;;3.70;;
15155;SDS011;7678;50.058;8.306;2023-07-31T06:12:06;8.60;;;3.50;;
15155;SDS011;7678;50.058;8.306;2023-07-31T06:14:36;8.03;;;3.20;;
15155;SDS011;7678;50.058;8.306;2023-07-31T06:17:05;7.03;;;3.20;;
15155;SDS011;7678;50.058;8.306;2023-07-31T06:19:35;8.47;;;3.00;;
15155;SDS011;7678;50.058;8.306;2023-07-31T06:22:03;6.03;;;3.00;;
15155;SDS011;7678;50.058;8.306;2023-07-31T06:24:32;7.13;;;2.77;;
15155;SDS011;7678;50.058;8.306;2023-07-31T06:27:00;7.10;;;3.13;;
15155;SDS011;7678;50.058;8.306;2023-07-31T06:29:30;5.70;;;2.57;;
15155;SDS011;7678;50.058;8.306;2023-07-31T06:31:58;6.13;;;2.83;;
15155;SDS011;7678;50.058;8.306;2023-07-31T06:34:29;6.10;;;3.07;;
15155;SDS011;7678;50.058;8.306;2023-07-31T06:36:59;9.43;;;3.17;;
15155;SDS011;7678;50.058;8.306;2023-07-31T06:39:27;6.40;;;3.17;;
15155;SDS011;7678;50.058;8.306;2023-07-31T06:41:59;6.37;;;3.37;;
15155;SDS011;7678;50.058;8.306;2023-07-31T06:44:28;8.67;;;3.30;;
15155;SDS011;7678;50.058;8.306;2023-07-31T06:46:57;10.77;;;3.50;;
15155;SDS011;7678;50.058;8.306;2023-07-31T06:49:28;10.23;;;3.87;;
15155;SDS011;7678;50.058;8.306;2023-07-31T06:51:56;6.47;;;3.33;;
15155;SDS011;7678;50.058;8.306;2023-07-31T06:54:26;5.97;;;2.90;;
15155;SDS011;7678;50.058;8.306;2023-07-31T06:56:54;8.10;;;2.93;;
15155;SDS011;7678;50.058;8.306;2023-07-31T06:59:25;6.43;;;3.10;;
15155;SDS011;7678;50.058;8.306;2023-07-31T07:01:54;14.33;;;3.20;;
15155;SDS011;7678;50.058;8.306;2023-07-31T07:04:23;8.87;;;3.60;;
15155;SDS011;7678;50.058;8.306;2023-07-31T07:06:53;8.93;;;3.60;;
15155;SDS011;7678;50.058;8.306;2023-07-31T07:09:21;6.10;;;3.13;;
15155;SDS011;7678;50.058;8.306;2023-07-31T07:11:56;8.67;;;3.33;;
15155;SDS011;7678;50.058;8.306;2023-07-31T07:14:24;7.53;;;2.90;;
15155;SDS011;7678;50.058;8.306;2023-07-31T07:16:52;6.83;;;3.17;;
15155;SDS011;7678;50.058;8.306;2023-07-31T07:19:21;7.70;;;3.33;;
15155;SDS011;7678;50.058;8.306;2023-07-31T07:21:50;7.87;;;3.03;;
15155;SDS011;7678;50.058;8.306;2023-07-31T07:24:26;5.87;;;2.80;;
15155;SDS011;7678;50.058;8.306;2023-07-31T07:26:56;9.03;;;3.60;;
15155;SDS011;7678;50.058;8.306;2023-07-31T07:29:24;7.97;;;2.80;;
15155;SDS011;7678;50.058;8.306;2023-07-31T07:31:52;5.47;;;3.47;;
15155;SDS011;7678;50.058;8.306;2023-07-31T07:34:22;7.90;;;3.10;;
15155;SDS011;7678;50.058;8.306;2023-07-31T07:36:52;10.50;;;3.63;;
15155;SDS011;7678;50.058;8.306;2023-07-31T07:39:20;6.23;;;3.07;;
15155;SDS011;7678;50.058;8.306;2023-07-31T07:41:49;5.90;;;2.93;;
15155;SDS011;7678;50.058;8.306;2023-07-31T07:44:22;7.07;;;3.47;;
15155;SDS011;7678;50.058;8.306;2023-07-31T07:46:50;6.03;;;3.07;;
15155;SDS011;7678;50.058;8.306;2023-07-31T07:49:19;6.93;;;2.90;;
15155;SDS011;7678;50.058;8.306;2023-07-31T07:51:48;6.50;;;3.07;;
15155;SDS011;7678;50.058;8.306;2023-07-31T07:54:20;6.53;;;3.33;;
15155;SDS011;7678;50.058;8.306;2023-07-31T07:56:49;13.13;;;3.30;;
15155;SDS011;7678;50.058;8.306;2023-07-31T07:59:17;6.07;;;3.27;;
15155;SDS011;7678;50.058;8.306;2023-07-31T08:01:48;12.83;;;2.77;;
15155;SDS011;7678;50.058;8.306;2023-07-31T08:04:16;6.33;;;2.87;;
15155;SDS011;7678;50.058;8.306;2023-07-31T08:06:44;6.73;;;2.67;;
15155;SDS011;7678;50.058;8.306;2023-07-31T08:09:13;7.73;;;3.00;;
15155;SDS011;7678;50.058;8.306;2023-07-31T08:11:42;7.13;;;2.90;;
15155;SDS011;7678;50.058;8.306;2023-07-31T08:14:10;10.33;;;3.40;;
15155;SDS011;7678;50.058;8.306;2023-07-31T08:16:39;5.90;;;3.07;;
15155;SDS011;7678;50.058;8.306;2023-07-31T08:19:09;6.03;;;2.97;;
15155;SDS011;7678;50.058;8.306;2023-07-31T08:21:38;4.97;;;2.63;;
15155;SDS011;7678;50.058;8.306;2023-07-31T08:24:07;6.80;;;3.10;;
15155;SDS011;7678;50.058;8.306;2023-07-31T08:26:36;6.47;;;2.90;;
15155;SDS011;7678;50.058;8.306;2023-07-31T08:29:04;5.90;;;2.80;;
15155;SDS011;7678;50.058;8.306;2023-07-31T08:31:33;6.27;;;2.70;;
15155;SDS011;7678;50.058;8.306;2023-07-31T08:34:06;4.43;;;2.67;;
15155;SDS011;7678;50.058;8.306;2023-07-31T08:36:39;7.00;;;2.90;;
15155;SDS011;7678;50.058;8.306;2023-07-31T08:39:08;7.37;;;3.07;;
15155;SDS011;7678;50.058;8.306;2023-07-31T08:41:37;7.90;;;3.10;;
15155;SDS011;7678;50.058;8.306;2023-07-31T08:44:06;9.00;;;2.83;;
15155;SDS011;7678;50.058;8.306;2023-07-31T08:46:35;9.03;;;3.17;;
15155;SDS011;7678;50.058;8.306;2023-07-31T08:49:05;6.50;;;3.13;;
15155;SDS011;7678;50.058;8.306;2023-07-31T08:51:36;4.90;;;2.90;;
15155;SDS011;7678;50.058;8.306;2023-07-31T08:54:09;10.30;;;3.17;;
15155;SDS011;7678;50.058;8.306;2023-07-31T08:56:37;7.20;;;3.07;;
15155;SDS011;7678;50.058;8.306;2023-07-31T08:59:09;6.27;;;2.80;;
15155;SDS011;7678;50.058;8.306;2023-07-31T09:01:43;8.73;;;2.80;;
15155;SDS011;7678;50.058;8.306;2023-07-31T09:04:15;5.57;;;2.80;;
15155;SDS011;7678;50.058;8.306;2023-07-31T09:06:48;5.93;;;2.93;;
15155;SDS011;7678;50.058;8.306;2023-07-31T09:09:25;4.97;;;2.90;;
15155;SDS011;7678;50.058;8.306;2023-07-31T09:11:56;7.23;;;2.80;;
15155;SDS011;7678;50.058;8.306;2023-07-31T09:14:25;5.80;;;2.77;;
15155;SDS011;7678;50.058;8.306;2023-07-31T09:16:54;4.43;;;2.70;;
15155;SDS011;7678;50.058;8.306;2023-07-31T09:19:26;6.00;;;2.73;;
15155;SDS011;7678;50.058;8.306;2023-07-31T09:21:56;8.30;;;2.67;;
15155;SDS011;7678;50.058;8.306;2023-07-31T09:24:27;5.77;;;3.10;;
15155;SDS011;7678;50.058;8.306;2023-07-31T09:27:01;6.90;;;2.93;;
15155;SDS011;7678;50.058;8.306;2023-07-31T09:29:30;5.60;;;2.90;;
15155;SDS011;7678;50.058;8.306;2023-07-31T09:31:58;8.97;;;2.83;;
15155;SDS011;7678;50.058;8.306;2023-07-31T09:34:28;6.47;;;2.93;;
15155;SDS011;7678;50.058;8.306;2023-07-31T09:37:01;7.77;;;3.00;;
15155;SDS011;7678;50.058;8.306;2023-07-31T09:39:31;6.40;;;2.70;;
15155;SDS011;7678;50.058;8.306;2023-07-31T09:42:00;5.03;;;2.80;;
15155;SDS011;7678;50.058;8.306;2023-07-31T09:44:38;5.00;;;2.63;;
15155;SDS011;7678;50.058;8.306;2023-07-31T09:47:20;4.30;;;2.60;;
15155;SDS011;7678;50.058;8.306;2023-07-31T09:49:51;5.53;;;2.77;;
15155;SDS011;7678;50.058;8.306;2023-07-31T09:52:20;13.80;;;3.10;;
15155;SDS011;7678;50.058;8.306;2023-07-31T09:54:53;6.30;;;2.70;;
15155;SDS011;7678;50.058;8.306;2023-07-31T09:57:22;8.03;;;3.33;;
15155;SDS011;7678;50.058;8.306;2023-07-31T09:59:52;7.33;;;3.07;;
15155;SDS011;7678;50.058;8.306;2023-07-31T10:02:22;8.33;;;3.17;;
15155;SDS011;7678;50.058;8.306;2023-07-31T10:04:51;9.53;;;3.10;;
15155;SDS011;7678;50.058;8.306;2023-07-31T10:07:23;10.83;;;3.33;;
15155;SDS011;7678;50.058;8.306;2023-07-31T10:09:55;5.53;;;2.87;;
15155;SDS011;7678;50.058;8.306;2023-07-31T10:12:30;5.23;;;2.80;;
15155;SDS011;7678;50.058;8.306;2023-07-31T10:15:01;6.93;;;3.17;;
15155;SDS011;7678;50.058;8.306;2023-07-31T10:17:30;6.77;;;3.03;;
15155;SDS011;7678;50.058;8.306;2023-07-31T10:19:59;4.57;;;2.40;;
15155;SDS011;7678;50.058;8.306;2023-07-31T10:22:31;6.93;;;2.70;;
15155;SDS011;7678;50.058;8.306;2023-07-31T10:25:01;7.00;;;3.37;;
15155;SDS011;7678;50.058;8.306;2023-07-31T10:27:30;6.47;;;2.93;;
15155;SDS011;7678;50.058;8.306;2023-07-31T10:30:00;7.03;;;3.33;;
15155;SDS011;7678;50.058;8.306;2023-07-31T10:32:31;10.27;;;2.83;;
15155;SDS011;7678;50.058;8.306;2023-07-31T10:35:01;8.67;;;3.33;;
15155;SDS011;7678;50.058;8.306;2023-07-31T10:37:36;10.73;;;2.93;;
15155;SDS011;7678;50.058;8.306;2023-07-31T10:40:09;6.18;;;3.20;;
15155;SDS011;7678;50.058;8.306;2023-07-31T10:42:44;8.93;;;3.43;;
15155;SDS011;7678;50.058;8.306;2023-07-31T10:45:23;11.52;;;3.60;;
15155;SDS011;7678;50.058;8.306;2023-07-31T10:47:57;9.48;;;3.47;;
15155;SDS011;7678;50.058;8.306;2023-07-31T10:50:27;6.93;;;2.80;;
15155;SDS011;7678;50.058;8.306;2023-07-31T10:52:56;7.17;;;3.57;;
15155;SDS011;7678;50.058;8.306;2023-07-31T10:55:29;12.17;;;4.17;;
15155;SDS011;7678;50.058;8.306;2023-07-31T10:58:05;4.73;;;2.97;;
15155;SDS011;7678;50.058;8.306;2023-07-31T11:00:36;8.70;;;3.20;;
15155;SDS011;7678;50.058;8.306;2023-07-31T11:03:06;5.80;;;3.43;;
15155;SDS011;7678;50.058;8.306;2023-07-31T11:05:40;10.67;;;3.13;;
15155;SDS011;7678;50.058;8.306;2023-07-31T11:08:11;6.17;;;2.83;;
15155;SDS011;7678;50.058;8.306;2023-07-31T11:10:43;6.00;;;3.00;;
15155;SDS011;7678;50.058;8.306;2023-07-31T11:13:12;7.50;;;3.40;;
15155;SDS011;7678;50.058;8.306;2023-07-31T11:15:41;6.77;;;3.20;;
15155;SDS011;7678;50.058;8.306;2023-07-31T11:18:09;6.83;;;3.27;;
15155;SDS011;7678;50.058;8.306;2023-07-31T11:20:40;7.93;;;3.40;;
15155;SDS011;7678;50.058;8.306;2023-07-31T11:23:09;4.93;;;3.10;;
15155;SDS011;7678;50.058;8.306;2023-07-31T11:25:38;5.77;;;3.43;;
15155;SDS011;7678;50.058;8.306;2023-07-31T11:28:11;7.77;;;3.50;;
15155;SDS011;7678;50.058;8.306;2023-07-31T11:30:41;8.53;;;3.03;;
15155;SDS011;7678;50.058;8.306;2023-07-31T11:33:11;5.70;;;3.03;;
15155;SDS011;7678;50.058;8.306;2023-07-31T11:35:41;4.27;;;3.00;;
15155;SDS011;7678;50.058;8.306;2023-07-31T11:38:12;7.40;;;3.27;;
15155;SDS011;7678;50.058;8.306;2023-07-31T11:40:52;6.37;;;3.17;;
15155;SDS011;7678;50.058;8.306;2023-07-31T11:43:25;6.83;;;3.03;;
15155;SDS011;7678;50.058;8.306;2023-07-31T11:45:55;7.13;;;2.80;;
15155;SDS011;7678;50.058;8.306;2023-07-31T11:48:26;6.83;;;3.30;;
15155;SDS011;7678;50.058;8.306;2023-07-31T11:50:57;4.83;;;3.10;;
15155;SDS011;7678;50.058;8.306;2023-07-31T11:53:31;9.93;;;3.50;;
15155;SDS011;7678;50.058;8.306;2023-07-31T11:56:02;7.17;;;3.47;;
15155;SDS011;7678;50.058;8.306;2023-07-31T11:58:34;6.07;;;3.00;;
15155;SDS011;7678;50.058;8.306;2023-07-31T12:01:04;5.97;;;2.97;;
15155;SDS011;7678;50.058;8.306;2023-07-31T12:03:33;7.85;;;3.50;;
15155;SDS011;7678;50.058;8.306;2023-07-31T12:06:02;10.60;;;3.60;;
15155;SDS011;7678;50.058;8.306;2023-07-31T12:08:31;6.37;;;3.00;;
15155;SDS011;7678;50.058;8.306;2023-07-31T12:11:02;7.90;;;2.80;;
15155;SDS011;7678;50.058;8.306;2023-07-31T12:13:33;6.83;;;3.20;;
15155;SDS011;7678;50.058;8.306;2023-07-31T12:16:03;9.10;;;3.10;;
15155;SDS011;7678;50.058;8.306;2023-07-31T12:18:35;4.90;;;2.90;;
15155;SDS011;7678;50.058;8.306;2023-07-31T12:21:05;7.37;;;3.13;;
15155;SDS011;7678;50.058;8.306;2023-07-31T12:23:38;5.60;;;3.00;;
15155;SDS011;7678;50.058;8.306;2023-07-31T12:26:09;4.43;;;3.07;;
15155;SDS011;7678;50.058;8.306;2023-07-31T12:28:43;6.67;;;2.90;;
15155;SDS011;7678;50.058;8.306;2023-07-31T12:31:15;6.17;;;2.83;;
15155;SDS011;7678;50.058;8.306;2023-07-31T12:33:45;5.60;;;2.70;;
15155;SDS011;7678;50.058;8.306;2023-07-31T12:36:17;5.47;;;3.20;;
15155;SDS011;7678;50.058;8.306;2023-07-31T12:38:54;4.53;;;3.10;;
15155;SDS011;7678;50.058;8.306;2023-07-31T12:41:25;6.27;;;3.03;;
15155;SDS011;7678;50.058;8.306;2023-07-31T12:43:59;5.00;;;2.87;;
15155;SDS011;7678;50.058;8.306;2023-07-31T12:46:29;7.50;;;2.87;;
15155;SDS011;7678;50.058;8.306;2023-07-31T12:48:58;7.27;;;3.00;;
15155;SDS011;7678;50.058;8.306;2023-07-31T12:51:27;6.33;;;3.00;;
15155;SDS011;7678;50.058;8.306;2023-07-31T12:53:56;6.33;;;2.97;;
15155;SDS011;7678;50.058;8.306;2023-07-31T12:56:26;5.57;;;3.10;;
15155;SDS011;7678;50.058;8.306;2023-07-31T12:58:54;5.40;;;3.00;;
15155;SDS011;7678;50.058;8.306;2023-07-31T13:01:27;6.53;;;3.20;;
15155;SDS011;7678;50.058;8.306;2023-07-31T13:03:55;6.17;;;3.17;;
15155;SDS011;7678;50.058;8.306;2023-07-31T13:06:24;6.33;;;2.70;;
15155;SDS011;7678;50.058;8.306;2023-07-31T13:08:54;5.47;;;2.50;;
15155;SDS011;7678;50.058;8.306;2023-07-31T13:11:23;6.17;;;2.70;;
15155;SDS011;7678;50.058;8.306;2023-07-31T13:13:51;5.67;;;2.30;;
15155;SDS011;7678;50.058;8.306;2023-07-31T13:16:20;5.47;;;2.63;;
15155;SDS011;7678;50.058;8.306;2023-07-31T13:18:49;4.63;;;2.53;;
15155;SDS011;7678;50.058;8.306;2023-07-31T13:21:19;6.07;;;2.93;;
15155;SDS011;7678;50.058;8.306;2023-07-31T13:23:51;6.77;;;2.37;;
15155;SDS011;7678;50.058;8.306;2023-07-31T13:26:22;5.53;;;2.70;;
15155;SDS011;7678;50.058;8.306;2023-07-31T13:28:53;6.57;;;2.47;;
15155;SDS011;7678;50.058;8.306;2023-07-31T13:31:21;5.47;;;2.57;;
15155;SDS011;7678;50.058;8.306;2023-07-31T13:33:53;5.03;;;2.70;;
15155;SDS011;7678;50.058;8.306;2023-07-31T13:36:26;4.90;;;2.33;;
15155;SDS011;7678;50.058;8.306;2023-07-31T13:38:54;4.60;;;2.40;;
15155;SDS011;7678;50.058;8.306;2023-07-31T13:41:23;9.13;;;3.30;;
15155;SDS011;7678;50.058;8.306;2023-07-31T13:43:53;5.30;;;2.50;;
15155;SDS011;7678;50.058;8.306;2023-07-31T13:46:24;5.20;;;2.50;;
15155;SDS011;7678;50.058;8.306;2023-07-31T13:48:55;8.73;;;2.63;;
15155;SDS011;7678;50.058;8.306;2023-07-31T13:51:24;6.53;;;2.80;;
15155;SDS011;7678;50.058;8.306;2023-07-31T13:53:56;6.53;;;2.30;;
15155;SDS011;7678;50.058;8.306;2023-07-31T13:56:25;4.30;;;2.73;;
15155;SDS011;7678;50.058;8.306;2023-07-31T13:59:06;4.40;;;2.60;;
15155;SDS011;7678;50.058;8.306;2023-07-31T14:01:35;5.83;;;2.47;;
15155;SDS011;7678;50.058;8.306;2023-07-31T14:04:05;6.23;;;3.07;;
15155;SDS011;7678;50.058;8.306;2023-07-31T14:06:33;12.23;;;3.03;;
15155;SDS011;7678;50.058;8.306;2023-07-31T14:09:02;7.70;;;3.10;;
15155;SDS011;7678;50.058;8.306;2023-07-31T14:11:31;5.90;;;2.60;;
15155;SDS011;7678;50.058;8.306;2023-07-31T14:14:01;3.60;;;2.40;;
15155;SDS011;7678;50.058;8.306;2023-07-31T14:16:31;3.87;;;2.40;;
15155;SDS011;7678;50.058;8.306;2023-07-31T14:18:59;6.03;;;2.70;;
15155;SDS011;7678;50.058;8.306;2023-07-31T14:21:29;8.60;;;3.00;;
15155;SDS011;7678;50.058;8.306;2023-07-31T14:23:58;6.03;;;2.60;;
15155;SDS011;7678;50.058;8.306;2023-07-31T14:26:27;3.37;;;2.30;;
15155;SDS011;7678;50.058;8.306;2023-07-31T14:28:55;7.70;;;2.60;;
15155;SDS011;7678;50.058;8.306;2023-07-31T14:31:23;5.67;;;2.50;;
15155;SDS011;7678;50.058;8.306;2023-07-31T14:33:52;8.87;;;3.33;;
15155;SDS011;7678;50.058;8.306;2023-07-31T14:36:23;7.20;;;3.53;;
15155;SDS011;7678;50.058;8.306;2023-07-31T14:38:53;7.47;;;3.60;;
15155;SDS011;7678;50.058;8.306;2023-07-31T14:41:22;7.77;;;3.47;;
15155;SDS011;7678;50.058;8.306;2023-07-31T14:43:50;7.93;;;3.60;;
15155;SDS011;7678;50.058;8.306;2023-07-31T14:46:19;7.90;;;2.97;;
15155;SDS011;7678;50.058;8.306;2023-07-31T14:48:47;6.40;;;3.03;;
15155;SDS011;7678;50.058;8.306;2023-07-31T14:51:15;6.80;;;2.70;;
15155;SDS011;7678;50.058;8.306;2023-07-31T14:53:44;8.13;;;2.83;;
15155;SDS011;7678;50.058;8.306;2023-07-31T14:56:15;4.53;;;2.60;;
15155;SDS011;7678;50.058;8.306;2023-07-31T14:58:44;4.80;;;2.50;;
15155;SDS011;7678;50.058;8.306;2023-07-31T15:01:12;6.27;;;2.90;;
15155;SDS011;7678;50.058;8.306;2023-07-31T15:03:41;4.73;;;2.10;;
15155;SDS011;7678;50.058;8.306;2023-07-31T15:06:10;4.13;;;1.90;;
15155;SDS011;7678;50.058;8.306;2023-07-31T15:08:39;4.93;;;2.13;;
15155;SDS011;7678;50.058;8.306;2023-07-31T15:11:09;6.43;;;2.10;;
15155;SDS011;7678;50.058;8.306;2023-07-31T15:13:39;3.13;;;1.90;;
15155;SDS011;7678;50.058;8.306;2023-07-31T15:16:07;6.20;;;2.27;;
15155;SDS011;7678;50.058;8.306;2023-07-31T15:18:38;7.57;;;1.90;;